Terminal Aerodrome Forecast
Issued by NWS

Home | Current Version | Previous Version | Text Only | Print | Product List | Glossary On
Versions: 1 2 3 4 5 6 7 8 9 10 11 12 13 14 15 16 17 18 19 20 21 22 23
000
FTUS41 KPHI 011721
TAFMIV
TAF
KMIV 011721Z 0118/0218 07010KT P6SM VCSH OVC006
      TEMPO 0118/0121 3SM -SHRA OVC005
     FM012100 07008KT P6SM VCSH OVC007
     FM020000 07008KT 6SM BR OVC005
      TEMPO 0200/0204 3SM -SHRA BR OVC004
     FM020500 07005KT 1SM BR OVC004
     FM021400 08005KT P6SM OVC015=

USA.gov is the U.S. government's official web portal to all federal, state and local government web resources and services.